createdAt,value
2018-08-12T00:01:22.703Z,14.50
2018-08-12T00:03:50.557Z,14.60
2018-08-12T00:06:18.385Z,14.60
2018-08-12T00:08:46.164Z,14.60
2018-08-12T00:11:13.969Z,14.80
2018-08-12T00:13:41.727Z,14.80
2018-08-12T00:16:09.585Z,14.70
2018-08-12T00:18:37.401Z,14.40
2018-08-12T00:21:05.422Z,14.40
2018-08-12T00:23:33.269Z,14.30
2018-08-12T00:26:01.036Z,14.10
2018-08-12T00:28:28.917Z,14.00
2018-08-12T00:30:56.722Z,13.90
2018-08-12T00:33:24.545Z,14.20
2018-08-12T00:35:52.332Z,14.40
2018-08-12T00:38:20.115Z,14.60
2018-08-12T00:40:47.941Z,14.70
2018-08-12T00:43:15.921Z,14.60
2018-08-12T00:45:43.651Z,14.60
2018-08-12T00:48:11.427Z,14.60
2018-08-12T00:50:39.217Z,14.60
2018-08-12T00:53:06.987Z,14.60
2018-08-12T00:55:34.763Z,14.70
2018-08-12T00:58:02.539Z,14.60
2018-08-12T01:00:30.373Z,14.30
2018-08-12T01:02:58.143Z,14.30
2018-08-12T01:05:26.074Z,14.40
2018-08-12T01:07:53.926Z,14.30
2018-08-12T01:10:21.665Z,14.40
2018-08-12T01:12:49.442Z,14.40
2018-08-12T01:15:21.266Z,14.30
2018-08-12T01:17:49.148Z,14.30
2018-08-12T01:20:19.621Z,14.30
2018-08-12T01:22:47.525Z,14.20
2018-08-12T01:25:15.333Z,14.20
2018-08-12T01:27:43.295Z,13.90
2018-08-12T01:30:13.597Z,13.80
2018-08-12T01:32:41.896Z,13.70
2018-08-12T01:35:10.723Z,13.70
2018-08-12T01:37:38.788Z,13.50
2018-08-12T01:40:08.705Z,13.30
2018-08-12T01:42:36.818Z,13.30
2018-08-12T01:45:04.939Z,13.60
2018-08-12T01:47:32.869Z,13.90
2018-08-12T01:50:00.761Z,14.00
2018-08-12T01:52:29.011Z,14.20
2018-08-12T01:54:56.895Z,14.30
2018-08-12T01:57:24.675Z,14.20
2018-08-12T01:59:52.415Z,14.20
2018-08-12T02:02:20.253Z,14.40
2018-08-12T02:04:48.022Z,14.60
2018-08-12T02:07:15.835Z,14.50
2018-08-12T02:09:43.612Z,14.50
2018-08-12T02:12:11.401Z,14.40
2018-08-12T02:14:39.164Z,14.50
2018-08-12T02:17:07.232Z,14.50
2018-08-12T02:19:34.943Z,14.60
2018-08-12T02:22:02.723Z,14.80
2018-08-12T02:24:30.449Z,14.80
2018-08-12T02:26:58.271Z,14.90
2018-08-12T02:29:25.994Z,15.00
2018-08-12T02:31:53.705Z,15.20
2018-08-12T02:34:21.463Z,15.20
2018-08-12T02:36:49.215Z,15.20
2018-08-12T02:39:16.952Z,15.10
2018-08-12T02:41:44.803Z,15.10
2018-08-12T02:44:12.523Z,15.20
2018-08-12T02:46:40.321Z,15.20
2018-08-12T02:49:08.121Z,15.30
2018-08-12T02:51:35.888Z,15.30
2018-08-12T02:54:03.736Z,15.30
2018-08-12T02:56:31.483Z,15.30
2018-08-12T02:58:59.234Z,15.30
2018-08-12T03:01:27.008Z,15.40
2018-08-12T03:03:54.789Z,15.40
2018-08-12T03:06:22.513Z,15.60
2018-08-12T03:08:50.298Z,15.70
2018-08-12T03:11:18.044Z,15.60
2018-08-12T03:13:45.812Z,15.70
2018-08-12T03:16:13.542Z,15.70
2018-08-12T03:18:41.337Z,15.70
2018-08-12T03:21:09.158Z,15.80
2018-08-12T03:23:36.945Z,15.70
2018-08-12T03:26:04.811Z,15.70
2018-08-12T03:28:32.544Z,15.70
2018-08-12T03:31:00.355Z,15.70
2018-08-12T03:33:28.059Z,15.80
2018-08-12T03:35:55.829Z,15.70
2018-08-12T03:38:23.555Z,15.70
2018-08-12T03:40:51.366Z,15.80
2018-08-12T03:43:19.145Z,15.80
2018-08-12T03:45:46.991Z,15.80
2018-08-12T03:48:14.771Z,15.90
2018-08-12T03:50:42.568Z,15.90
2018-08-12T03:53:10.344Z,15.90
2018-08-12T03:55:38.077Z,15.90
2018-08-12T03:58:05.837Z,15.90
2018-08-12T04:00:33.654Z,15.90
2018-08-12T04:03:01.446Z,15.90
2018-08-12T04:05:29.240Z,15.90
2018-08-12T04:07:56.964Z,16.00
2018-08-12T04:10:24.703Z,15.90
2018-08-12T04:12:52.458Z,15.90
2018-08-12T04:15:20.184Z,16.00
2018-08-12T04:17:48.004Z,16.00
2018-08-12T04:20:15.785Z,16.00
2018-08-12T04:22:43.525Z,16.00
2018-08-12T04:25:11.295Z,16.10
2018-08-12T04:27:39.068Z,16.10
2018-08-12T04:30:08.141Z,16.10
2018-08-12T04:32:35.919Z,16.10
2018-08-12T04:35:04.303Z,16.10
2018-08-12T04:37:32.036Z,16.20
2018-08-12T04:39:59.805Z,16.20
2018-08-12T04:42:27.585Z,16.20
2018-08-12T04:44:55.343Z,16.20
2018-08-12T04:47:23.091Z,16.30
2018-08-12T04:49:50.914Z,16.30
2018-08-12T04:52:18.730Z,16.30
2018-08-12T04:54:46.441Z,16.30
2018-08-12T04:57:14.213Z,16.30
2018-08-12T04:59:41.975Z,16.30
2018-08-12T05:02:09.707Z,16.30
2018-08-12T05:04:37.405Z,16.40
2018-08-12T05:07:05.564Z,16.40
2018-08-12T05:09:33.301Z,16.40
2018-08-12T05:12:01.025Z,16.40
2018-08-12T05:14:28.798Z,16.40
2018-08-12T05:16:56.572Z,16.40
2018-08-12T05:19:24.415Z,16.40
2018-08-12T05:21:52.151Z,16.30
2018-08-12T05:24:19.929Z,16.40
2018-08-12T05:26:47.681Z,16.40
2018-08-12T05:29:15.461Z,16.50
2018-08-12T05:31:43.273Z,16.50
2018-08-12T05:34:11.043Z,16.60
2018-08-12T05:36:38.956Z,16.60
2018-08-12T05:39:09.324Z,16.60
2018-08-12T05:41:37.089Z,16.70
2018-08-12T05:44:05.057Z,16.70
2018-08-12T05:46:32.859Z,16.70
2018-08-12T05:49:00.588Z,16.60
2018-08-12T05:51:28.453Z,16.60
2018-08-12T05:53:56.161Z,16.60
2018-08-12T05:56:23.955Z,16.70
2018-08-12T05:58:51.757Z,16.60
2018-08-12T06:01:19.528Z,16.70
2018-08-12T06:03:47.503Z,16.80
2018-08-12T06:06:15.335Z,16.80
2018-08-12T06:08:43.100Z,16.90
2018-08-12T06:11:10.860Z,17.00
2018-08-12T06:13:38.611Z,17.10
2018-08-12T06:16:06.501Z,17.20
2018-08-12T06:18:34.351Z,17.20
2018-08-12T06:21:02.204Z,17.30
2018-08-12T06:23:30.069Z,17.40
2018-08-12T06:25:57.812Z,17.40
2018-08-12T06:28:25.581Z,17.50
2018-08-12T06:30:53.379Z,17.60
2018-08-12T06:33:21.198Z,17.70
2018-08-12T06:35:48.929Z,17.80
2018-08-12T06:38:16.722Z,17.80
2018-08-12T06:40:44.488Z,17.90
2018-08-12T06:43:12.242Z,18.00
2018-08-12T06:45:40.087Z,18.10
2018-08-12T06:48:07.837Z,18.20
2018-08-12T06:50:35.674Z,18.20
2018-08-12T06:53:03.498Z,18.20
2018-08-12T06:55:31.258Z,18.40
2018-08-12T06:57:59.031Z,18.50
2018-08-12T07:00:26.777Z,18.60
2018-08-12T07:02:54.527Z,18.70
2018-08-12T07:05:22.357Z,18.90
2018-08-12T07:07:50.079Z,18.90
2018-08-12T07:10:17.948Z,19.10
2018-08-12T07:12:45.641Z,19.30
2018-08-12T07:15:17.775Z,19.40
2018-08-12T07:17:46.283Z,19.60
2018-08-12T07:20:14.549Z,19.80
2018-08-12T07:22:42.436Z,19.90
2018-08-12T07:25:11.540Z,20.00
2018-08-12T07:27:40.327Z,20.10
2018-08-12T07:30:09.937Z,20.20
2018-08-12T07:32:37.720Z,20.40
2018-08-12T07:35:06.149Z,20.50
2018-08-12T07:37:33.883Z,20.60
2018-08-12T07:40:01.755Z,20.70
2018-08-12T07:42:29.577Z,20.70
2018-08-12T07:44:57.378Z,20.70
2018-08-12T07:47:25.162Z,20.70
2018-08-12T07:49:52.935Z,20.90
2018-08-12T07:52:20.740Z,21.20
2018-08-12T07:54:48.459Z,21.40
2018-08-12T07:57:16.305Z,21.40
2018-08-12T07:59:44.247Z,21.60
2018-08-12T08:02:12.117Z,21.50
2018-08-12T08:04:39.913Z,21.60
2018-08-12T08:07:07.655Z,21.80
2018-08-12T08:09:35.451Z,21.90
2018-08-12T08:12:03.405Z,21.90
2018-08-12T08:14:31.473Z,22.00
2018-08-12T08:16:59.340Z,22.10
2018-08-12T08:19:27.195Z,22.20
2018-08-12T08:21:54.985Z,22.30
2018-08-12T08:24:22.759Z,22.60
2018-08-12T08:26:50.515Z,23.00
2018-08-12T08:29:18.299Z,23.20
2018-08-12T08:31:46.204Z,23.10
2018-08-12T08:34:13.896Z,23.10
2018-08-12T08:36:41.667Z,23.20
2018-08-12T08:39:11.933Z,23.30
2018-08-12T08:41:39.744Z,23.30
2018-08-12T08:44:07.713Z,23.20
2018-08-12T08:46:35.499Z,23.20
2018-08-12T08:49:03.364Z,23.20
2018-08-12T08:51:31.303Z,23.30
2018-08-12T08:53:59.645Z,23.40
2018-08-12T08:56:27.439Z,23.40
2018-08-12T08:58:55.297Z,23.40
2018-08-12T09:01:23.165Z,23.50
2018-08-12T09:03:50.893Z,23.60
2018-08-12T09:06:18.641Z,23.80
2018-08-12T09:08:47.476Z,23.80
2018-08-12T09:11:15.041Z,24.00
2018-08-12T09:13:42.743Z,24.20
2018-08-12T09:16:10.505Z,24.20
2018-08-12T09:18:38.220Z,24.50
2018-08-12T09:21:06.032Z,24.30
2018-08-12T09:23:33.799Z,24.20
2018-08-12T09:26:01.542Z,24.40
2018-08-12T09:28:29.297Z,24.30
2018-08-12T09:30:57.047Z,24.50
2018-08-12T09:33:24.756Z,24.60
2018-08-12T09:35:52.442Z,24.60
2018-08-12T09:38:20.179Z,24.70
2018-08-12T09:40:47.943Z,24.70
2018-08-12T09:43:15.649Z,24.80
2018-08-12T09:45:43.377Z,24.90
2018-08-12T09:48:11.104Z,25.20
2018-08-12T09:50:38.997Z,25.00
2018-08-12T09:53:06.807Z,25.00
2018-08-12T09:55:34.604Z,24.80
2018-08-12T09:58:02.556Z,24.80
2018-08-12T10:00:35.871Z,25.20
2018-08-12T10:03:03.966Z,25.10
2018-08-12T10:05:31.767Z,25.20
2018-08-12T10:07:59.612Z,25.50
2018-08-12T10:10:27.364Z,25.40
2018-08-12T10:12:55.177Z,25.50
2018-08-12T10:15:22.950Z,25.40
2018-08-12T10:17:52.815Z,25.70
2018-08-12T10:20:20.654Z,25.80
2018-08-12T10:22:48.483Z,25.90
2018-08-12T10:25:16.290Z,25.80
2018-08-12T10:27:44.457Z,25.80
2018-08-12T10:30:13.268Z,25.80
2018-08-12T10:32:41.046Z,25.80
2018-08-12T10:35:10.545Z,25.80
2018-08-12T10:37:38.330Z,26.10
2018-08-12T10:40:08.863Z,26.10
2018-08-12T10:42:36.644Z,26.50
2018-08-12T10:45:06.242Z,26.30
2018-08-12T10:47:34.038Z,26.30
2018-08-12T10:50:01.814Z,26.20
2018-08-12T10:52:29.548Z,26.00
2018-08-12T10:54:57.485Z,25.80
2018-08-12T10:57:25.384Z,25.90
2018-08-12T11:09:35.489Z,27.20
2018-08-12T11:12:03.291Z,27.40
2018-08-12T11:14:31.065Z,27.60
2018-08-12T11:16:58.797Z,27.70
2018-08-12T11:19:26.569Z,27.70
2018-08-12T11:21:54.312Z,27.80
2018-08-12T11:24:22.069Z,27.80
2018-08-12T11:26:49.843Z,27.90
2018-08-12T11:29:17.647Z,28.00
2018-08-12T11:31:45.417Z,27.90
2018-08-12T11:34:13.180Z,27.90
2018-08-12T11:36:41.055Z,28.00
2018-08-12T11:39:10.408Z,28.00
2018-08-12T11:41:38.169Z,27.90
2018-08-12T11:44:06.083Z,28.00
2018-08-12T11:46:33.831Z,28.30
2018-08-12T11:49:01.614Z,28.50
2018-08-12T11:51:29.523Z,28.80
2018-08-12T11:53:57.381Z,28.80
2018-08-12T11:56:25.340Z,28.90
2018-08-12T11:58:53.173Z,28.80
2018-08-12T12:01:20.899Z,29.00
2018-08-12T12:03:48.712Z,28.90
2018-08-12T12:06:16.535Z,28.90
2018-08-12T12:08:44.325Z,28.90
2018-08-12T12:11:12.076Z,29.10
2018-08-12T12:13:39.855Z,29.20
2018-08-12T12:16:07.596Z,29.20
2018-08-12T12:18:35.366Z,29.10
2018-08-12T12:21:03.158Z,29.10
2018-08-12T12:23:30.904Z,29.00
2018-08-12T12:25:58.694Z,29.20
2018-08-12T12:28:26.459Z,29.20
2018-08-12T12:30:54.225Z,29.10
2018-08-12T12:33:21.979Z,29.20
2018-08-12T12:35:49.759Z,29.30
2018-08-12T12:38:17.475Z,29.60
2018-08-12T12:40:45.312Z,29.50
2018-08-12T12:43:13.041Z,29.50
2018-08-12T12:45:40.827Z,29.60
2018-08-12T12:48:08.589Z,29.80
2018-08-12T12:50:36.333Z,29.70
2018-08-12T12:53:04.157Z,29.50
2018-08-12T12:55:31.904Z,29.30
2018-08-12T12:57:59.655Z,29.30
2018-08-12T13:00:27.456Z,29.30
2018-08-12T13:02:55.193Z,29.40
2018-08-12T13:05:23.008Z,29.60
2018-08-12T13:07:51.329Z,29.90
2018-08-12T13:10:19.628Z,30.00
2018-08-12T13:12:47.420Z,30.00
2018-08-12T13:15:16.111Z,30.00
2018-08-12T13:17:43.916Z,29.90
2018-08-12T13:20:15.061Z,29.70
2018-08-12T13:22:44.094Z,29.70
2018-08-12T13:25:13.668Z,29.70
2018-08-12T13:27:42.200Z,29.80
2018-08-12T13:30:11.362Z,29.80
2018-08-12T13:32:39.637Z,29.90
2018-08-12T13:35:07.762Z,30.00
2018-08-12T13:37:36.150Z,30.20
2018-08-12T13:40:05.465Z,30.30
2018-08-12T13:42:33.233Z,30.30
2018-08-12T13:45:01.030Z,30.30
2018-08-12T13:47:28.858Z,30.20
2018-08-12T13:49:56.610Z,30.30
2018-08-12T13:52:24.409Z,30.30
2018-08-12T13:54:52.172Z,30.20
2018-08-12T13:57:19.960Z,30.40
2018-08-12T13:59:47.884Z,30.20
2018-08-12T14:02:15.697Z,30.20
2018-08-12T14:04:43.480Z,30.40
2018-08-12T14:07:11.307Z,30.80
2018-08-12T14:09:39.040Z,30.80
2018-08-12T14:12:06.862Z,30.90
2018-08-12T14:14:34.680Z,31.20
2018-08-12T14:17:02.468Z,31.20
2018-08-12T14:19:30.219Z,31.10
2018-08-12T14:21:58.109Z,31.10
2018-08-12T14:24:25.861Z,31.20
2018-08-12T14:26:53.623Z,31.40
2018-08-12T14:29:21.460Z,31.20
2018-08-12T14:31:49.246Z,31.40
2018-08-12T14:34:17.072Z,31.30
2018-08-12T14:36:44.886Z,31.20
2018-08-12T14:39:12.653Z,31.20
2018-08-12T14:41:40.458Z,30.90
2018-08-12T14:44:08.248Z,31.00
2018-08-12T14:46:36.331Z,30.90
2018-08-12T14:49:04.179Z,30.90
2018-08-12T14:51:32.000Z,30.70
2018-08-12T14:53:59.735Z,30.70
2018-08-12T14:56:27.473Z,30.50
2018-08-12T14:58:55.238Z,30.70
2018-08-12T15:01:23.077Z,30.80
2018-08-12T15:03:50.964Z,30.80
2018-08-12T15:06:18.893Z,30.70
2018-08-12T15:08:46.575Z,30.80
2018-08-12T15:11:14.416Z,30.60
2018-08-12T15:13:42.210Z,30.40
2018-08-12T15:16:09.986Z,30.10
2018-08-12T15:18:37.735Z,29.90
2018-08-12T15:21:05.461Z,29.80
2018-08-12T15:23:33.326Z,29.80
2018-08-12T15:26:01.261Z,29.80
2018-08-12T15:28:29.099Z,30.00
2018-08-12T15:30:56.938Z,30.10
2018-08-12T15:33:24.864Z,30.30
2018-08-12T15:35:52.927Z,30.30
2018-08-12T15:38:20.871Z,30.30
2018-08-12T15:40:48.865Z,30.20
2018-08-12T15:43:16.815Z,30.00
2018-08-12T15:45:44.701Z,29.90
2018-08-12T15:48:12.553Z,29.80
2018-08-12T15:50:40.551Z,29.70
2018-08-12T15:53:08.431Z,29.60
2018-08-12T15:55:36.303Z,29.80
2018-08-12T15:58:04.096Z,30.10
2018-08-12T16:00:31.802Z,30.10
2018-08-12T16:02:59.515Z,29.90
2018-08-12T16:05:27.245Z,29.60
2018-08-12T16:07:54.976Z,29.30
2018-08-12T16:10:23.462Z,29.10
2018-08-12T16:12:52.522Z,28.80
2018-08-12T16:15:20.632Z,28.70
2018-08-12T16:17:48.394Z,28.70
2018-08-12T16:20:16.171Z,28.50
2018-08-12T16:22:44.089Z,28.50
2018-08-12T16:25:14.609Z,28.50
2018-08-12T16:27:42.865Z,28.50
2018-08-12T16:30:11.892Z,28.40
2018-08-12T16:32:39.643Z,28.40
2018-08-12T16:35:09.024Z,28.40
2018-08-12T16:37:36.802Z,28.40
2018-08-12T16:40:06.196Z,28.40
2018-08-12T16:42:34.039Z,28.40
2018-08-12T16:45:01.841Z,28.70
2018-08-12T16:47:29.572Z,28.90
2018-08-12T16:49:57.371Z,29.00
2018-08-12T16:52:25.122Z,29.10
2018-08-12T16:54:53.004Z,28.90
2018-08-12T16:57:20.752Z,29.00
2018-08-12T16:59:48.467Z,28.90
2018-08-12T17:02:16.173Z,28.90
2018-08-12T17:04:43.921Z,28.70
2018-08-12T17:07:11.752Z,28.60
2018-08-12T17:09:39.487Z,28.50
2018-08-12T17:12:07.231Z,28.50
2018-08-12T17:14:34.969Z,28.40
2018-08-12T17:17:02.738Z,28.40
2018-08-12T17:19:30.445Z,28.30
2018-08-12T17:21:58.189Z,28.30
2018-08-12T17:24:25.940Z,28.30
2018-08-12T17:26:53.711Z,28.20
2018-08-12T17:29:21.424Z,28.20
2018-08-12T17:31:49.126Z,28.10
2018-08-12T17:34:16.807Z,28.00
2018-08-12T17:36:44.545Z,28.00
2018-08-12T17:39:12.313Z,27.90
2018-08-12T17:41:40.079Z,27.80
2018-08-12T17:44:07.986Z,27.80
2018-08-12T17:46:35.703Z,27.70
2018-08-12T17:49:03.477Z,27.60
2018-08-12T17:51:31.205Z,27.60
2018-08-12T17:53:59.569Z,27.50
2018-08-12T17:56:27.541Z,27.40
2018-08-12T17:58:55.433Z,27.30
2018-08-12T18:01:23.251Z,27.20
2018-08-12T18:03:51.075Z,27.20
2018-08-12T18:06:18.874Z,27.10
2018-08-12T18:08:46.601Z,27.00
2018-08-12T18:11:14.313Z,27.00
2018-08-12T18:13:42.040Z,26.90
2018-08-12T18:16:10.021Z,26.80
2018-08-12T18:18:37.751Z,26.70
2018-08-12T18:21:05.485Z,26.70
2018-08-12T18:23:33.364Z,26.60
2018-08-12T18:26:01.125Z,26.50
2018-08-12T18:28:28.869Z,26.50
2018-08-12T18:30:56.579Z,26.40
2018-08-12T18:33:24.401Z,26.40
2018-08-12T18:35:52.173Z,26.30
2018-08-12T18:38:19.993Z,26.20
2018-08-12T18:40:47.751Z,26.20
2018-08-12T18:43:15.602Z,26.10
2018-08-12T18:45:43.308Z,26.10
2018-08-12T18:48:11.088Z,26.00
2018-08-12T18:50:38.828Z,25.90
2018-08-12T18:53:06.613Z,25.90
2018-08-12T18:55:34.389Z,25.80
2018-08-12T18:58:02.145Z,25.80
2018-08-12T19:00:29.953Z,25.70
2018-08-12T19:02:57.725Z,25.60
2018-08-12T19:05:25.646Z,25.50
2018-08-12T19:07:53.396Z,25.50
2018-08-12T19:10:21.112Z,25.40
2018-08-12T19:12:48.873Z,25.40
2018-08-12T19:15:16.604Z,25.30
2018-08-12T19:17:44.392Z,25.20
2018-08-12T19:20:12.184Z,25.20
2018-08-12T19:22:40.049Z,25.20
2018-08-12T19:25:08.497Z,25.10
2018-08-12T19:27:36.644Z,25.10
2018-08-12T19:30:06.572Z,25.00
2018-08-12T19:32:34.398Z,25.00
2018-08-12T19:35:02.168Z,24.90
2018-08-12T19:37:30.000Z,24.90
2018-08-12T19:39:57.757Z,24.90
2018-08-12T19:42:25.487Z,24.80
2018-08-12T19:44:53.561Z,24.80
2018-08-12T19:47:21.363Z,24.80
2018-08-12T19:49:49.132Z,24.70
2018-08-12T19:52:16.904Z,24.70
2018-08-12T19:54:44.756Z,24.70
2018-08-12T19:57:12.943Z,24.60
2018-08-12T19:59:40.735Z,24.60
2018-08-12T20:02:08.734Z,24.60
2018-08-12T20:04:36.741Z,24.60
2018-08-12T20:07:04.979Z,24.60
2018-08-12T20:09:32.801Z,24.50
2018-08-12T20:12:00.690Z,24.50
2018-08-12T20:14:28.657Z,24.50
2018-08-12T20:16:56.555Z,24.50
2018-08-12T20:19:24.530Z,24.50
2018-08-12T20:21:53.271Z,24.40
2018-08-12T20:24:21.260Z,24.30
2018-08-12T20:26:49.205Z,24.30
2018-08-12T20:29:16.975Z,24.30
2018-08-12T20:31:44.836Z,24.20
2018-08-12T20:34:12.634Z,24.20
2018-08-12T20:36:40.398Z,24.10
2018-08-12T20:39:10.265Z,24.10
2018-08-12T20:41:38.043Z,24.00
2018-08-12T20:44:05.799Z,23.90
2018-08-12T20:46:33.664Z,23.80
2018-08-12T20:49:01.427Z,23.80
2018-08-12T20:51:29.140Z,23.70
2018-08-12T20:53:56.996Z,23.70
2018-08-12T20:56:24.791Z,23.60
2018-08-12T20:58:52.533Z,23.60
2018-08-12T21:01:20.352Z,23.60
2018-08-12T21:03:48.168Z,23.50
2018-08-12T21:06:15.895Z,23.50
2018-08-12T21:08:43.664Z,23.50
2018-08-12T21:11:11.400Z,23.50
2018-08-12T21:13:39.148Z,23.50
2018-08-12T21:16:06.942Z,23.50
2018-08-12T21:18:34.734Z,23.50
2018-08-12T21:21:02.519Z,23.40
2018-08-12T21:23:30.262Z,23.40
2018-08-12T21:25:58.140Z,23.30
2018-08-12T21:28:25.868Z,23.40
2018-08-12T21:30:53.641Z,23.30
2018-08-12T21:33:21.408Z,23.30
2018-08-12T21:35:49.168Z,23.20
2018-08-12T21:38:16.978Z,23.20
2018-08-12T21:40:44.752Z,23.20
2018-08-12T21:43:12.565Z,23.20
2018-08-12T21:45:40.297Z,23.10
2018-08-12T21:48:08.161Z,23.10
2018-08-12T21:50:35.917Z,23.10
2018-08-12T21:53:03.802Z,23.10
2018-08-12T21:55:31.727Z,23.10
2018-08-12T21:57:59.583Z,23.00
2018-08-12T22:00:27.319Z,23.00
2018-08-12T22:02:55.783Z,23.00
2018-08-12T22:05:24.733Z,23.00
2018-08-12T22:07:52.550Z,23.00
2018-08-12T22:10:20.335Z,23.00
2018-08-12T22:12:48.073Z,22.90
2018-08-12T22:15:15.913Z,23.00
2018-08-12T22:17:43.805Z,22.90
2018-08-12T22:20:11.695Z,22.90
2018-08-12T22:22:39.482Z,22.90
2018-08-12T22:25:07.360Z,22.90
2018-08-12T22:27:35.122Z,22.80
2018-08-12T22:30:03.081Z,22.80
2018-08-12T22:32:30.902Z,22.70
2018-08-12T22:34:58.726Z,22.60
2018-08-12T22:37:26.539Z,22.60
2018-08-12T22:39:54.387Z,22.50
2018-08-12T22:42:22.195Z,22.40
2018-08-12T22:44:49.948Z,22.30
2018-08-12T22:47:17.731Z,22.20
2018-08-12T22:49:45.480Z,22.20
2018-08-12T22:52:13.276Z,22.00
2018-08-12T22:54:41.111Z,22.00
2018-08-12T22:57:08.868Z,22.00
2018-08-12T22:59:36.675Z,21.90
2018-08-12T23:02:05.084Z,21.80
2018-08-12T23:04:32.914Z,21.80
2018-08-12T23:07:00.814Z,22.00
2018-08-12T23:09:28.598Z,22.00
2018-08-12T23:11:56.377Z,22.00
2018-08-12T23:14:24.199Z,22.10
2018-08-12T23:16:58.097Z,22.10
2018-08-12T23:19:25.985Z,22.10
2018-08-12T23:21:54.400Z,22.10
2018-08-12T23:24:22.280Z,22.00
2018-08-12T23:26:50.118Z,22.00
2018-08-12T23:29:17.883Z,22.00
2018-08-12T23:31:45.718Z,22.00
2018-08-12T23:34:13.624Z,21.90
2018-08-12T23:36:41.419Z,22.00
2018-08-12T23:39:10.449Z,22.00
2018-08-12T23:41:38.237Z,22.00
2018-08-12T23:44:06.795Z,22.00
2018-08-12T23:46:34.562Z,22.00
2018-08-12T23:49:02.413Z,21.90
2018-08-12T23:51:30.237Z,21.80
2018-08-12T23:53:57.996Z,21.70
2018-08-12T23:56:26.589Z,21.80
2018-08-12T23:58:54.351Z,21.80
